sensor_id;sensor_type;location;lat;lon;timestamp;pressure;altitude;pressure_sealevel;temperature;humidity
29433;BME280;16405;53.964;13.448;2023-09-19T00:01:34;100005.94;;;18.24;100.00
29433;BME280;16405;53.964;13.448;2023-09-19T00:04:01;100005.25;;;18.22;100.00
29433;BME280;16405;53.964;13.448;2023-09-19T00:06:30;100002.56;;;18.22;100.00
29433;BME280;16405;53.964;13.448;2023-09-19T00:08:57;99997.25;;;18.22;100.00
29433;BME280;16405;53.964;13.448;2023-09-19T00:11:25;100000.91;;;18.21;100.00
29433;BME280;16405;53.964;13.448;2023-09-19T00:13:52;100001.88;;;18.20;100.00
29433;BME280;16405;53.964;13.448;2023-09-19T00:16:18;99998.38;;;18.20;100.00
29433;BME280;16405;53.964;13.448;2023-09-19T00:18:45;100002.16;;;18.17;100.00
29433;BME280;16405;53.964;13.448;2023-09-19T00:21:11;100002.44;;;18.14;100.00
29433;BME280;16405;53.964;13.448;2023-09-19T00:23:37;99999.91;;;18.13;100.00
29433;BME280;16405;53.964;13.448;2023-09-19T00:26:03;100001.03;;;18.10;100.00
29433;BME280;16405;53.964;13.448;2023-09-19T00:28:30;100002.72;;;18.11;100.00
29433;BME280;16405;53.964;13.448;2023-09-19T00:30:55;99999.09;;;18.12;100.00
29433;BME280;16405;53.964;13.448;2023-09-19T00:33:22;99998.22;;;18.12;100.00
29433;BME280;16405;53.964;13.448;2023-09-19T00:35:52;99996.53;;;18.11;100.00
29433;BME280;16405;53.964;13.448;2023-09-19T00:38:20;99995.56;;;18.12;100.00
29433;BME280;16405;53.964;13.448;2023-09-19T00:40:53;100005.50;;;18.10;100.00
29433;BME280;16405;53.964;13.448;2023-09-19T00:43:20;100001.03;;;18.10;100.00
29433;BME280;16405;53.964;13.448;2023-09-19T00:45:52;99993.19;;;18.09;100.00
29433;BME280;16405;53.964;13.448;2023-09-19T00:48:20;99995.84;;;18.09;100.00
29433;BME280;16405;53.964;13.448;2023-09-19T00:50:47;99996.97;;;18.06;100.00
29433;BME280;16405;53.964;13.448;2023-09-19T00:53:18;99992.19;;;18.00;100.00
29433;BME280;16405;53.964;13.448;2023-09-19T00:55:46;99991.75;;;17.95;100.00
29433;BME280;16405;53.964;13.448;2023-09-19T00:58:12;99998.19;;;17.92;100.00
29433;BME280;16405;53.964;13.448;2023-09-19T01:00:38;99987.94;;;17.88;100.00
29433;BME280;16405;53.964;13.448;2023-09-19T01:03:05;99983.59;;;17.87;100.00
29433;BME280;16405;53.964;13.448;2023-09-19T01:05:33;99989.06;;;17.85;100.00
29433;BME280;16405;53.964;13.448;2023-09-19T01:07:59;99987.53;;;17.82;100.00
29433;BME280;16405;53.964;13.448;2023-09-19T01:10:25;99992.00;;;17.82;100.00
29433;BME280;16405;53.964;13.448;2023-09-19T01:13:25;99988.03;;;17.76;100.00
29433;BME280;16405;53.964;13.448;2023-09-19T01:15:59;99998.09;;;17.73;100.00
29433;BME280;16405;53.964;13.448;2023-09-19T01:19:26;99995.13;;;17.66;100.00
29433;BME280;16405;53.964;13.448;2023-09-19T01:22:56;99991.91;;;17.62;100.00
29433;BME280;16405;53.964;13.448;2023-09-19T01:28:26;99982.06;;;17.53;100.00
29433;BME280;16405;53.964;13.448;2023-09-19T01:30:57;99985.25;;;17.47;100.00
29433;BME280;16405;53.964;13.448;2023-09-19T01:33:24;99978.25;;;17.46;100.00
29433;BME280;16405;53.964;13.448;2023-09-19T01:35:51;99989.19;;;17.43;100.00
29433;BME280;16405;53.964;13.448;2023-09-19T01:38:19;99990.25;;;17.40;100.00
29433;BME280;16405;53.964;13.448;2023-09-19T01:41:05;100003.13;;;17.35;100.00
29433;BME280;16405;53.964;13.448;2023-09-19T01:43:42;99998.34;;;17.29;100.00
29433;BME280;16405;53.964;13.448;2023-09-19T01:46:23;99997.91;;;17.24;100.00
29433;BME280;16405;53.964;13.448;2023-09-19T01:52:15;99992.78;;;17.11;100.00
29433;BME280;16405;53.964;13.448;2023-09-19T01:54:52;100005.50;;;17.08;100.00
29433;BME280;16405;53.964;13.448;2023-09-19T01:57:29;99997.78;;;17.05;100.00
29433;BME280;16405;53.964;13.448;2023-09-19T02:00:08;99989.34;;;16.99;100.00
29433;BME280;16405;53.964;13.448;2023-09-19T02:02:39;99994.94;;;16.96;100.00
29433;BME280;16405;53.964;13.448;2023-09-19T02:05:06;100003.03;;;16.95;100.00
29433;BME280;16405;53.964;13.448;2023-09-19T02:07:32;100007.53;;;16.94;100.00
29433;BME280;16405;53.964;13.448;2023-09-19T02:09:58;100010.91;;;16.96;100.00
29433;BME280;16405;53.964;13.448;2023-09-19T02:12:26;100009.91;;;16.97;100.00
29433;BME280;16405;53.964;13.448;2023-09-19T02:14:52;100010.63;;;16.99;100.00
29433;BME280;16405;53.964;13.448;2023-09-19T02:17:17;100005.06;;;17.02;100.00
29433;BME280;16405;53.964;13.448;2023-09-19T02:19:43;100003.25;;;17.03;100.00
29433;BME280;16405;53.964;13.448;2023-09-19T02:22:09;100004.78;;;17.06;100.00
29433;BME280;16405;53.964;13.448;2023-09-19T02:24:37;100013.47;;;17.08;100.00
29433;BME280;16405;53.964;13.448;2023-09-19T02:27:04;100013.09;;;17.12;100.00
29433;BME280;16405;53.964;13.448;2023-09-19T02:29:31;100007.53;;;17.15;100.00
29433;BME280;16405;53.964;13.448;2023-09-19T02:31:57;100007.25;;;17.18;100.00
29433;BME280;16405;53.964;13.448;2023-09-19T02:34:23;100013.88;;;17.24;100.00
29433;BME280;16405;53.964;13.448;2023-09-19T02:36:49;100012.75;;;17.27;100.00
29433;BME280;16405;53.964;13.448;2023-09-19T02:39:14;100010.94;;;17.27;100.00
29433;BME280;16405;53.964;13.448;2023-09-19T02:41:40;100011.53;;;17.31;100.00
29433;BME280;16405;53.964;13.448;2023-09-19T02:44:07;100017.69;;;17.31;100.00
29433;BME280;16405;53.964;13.448;2023-09-19T02:46:36;100014.31;;;17.29;100.00
29433;BME280;16405;53.964;13.448;2023-09-19T02:49:03;100015.00;;;17.31;100.00
29433;BME280;16405;53.964;13.448;2023-09-19T02:51:32;100011.53;;;17.31;100.00
29433;BME280;16405;53.964;13.448;2023-09-19T02:53:59;100018.38;;;17.33;100.00
29433;BME280;16405;53.964;13.448;2023-09-19T02:56:25;100012.34;;;17.31;100.00
29433;BME280;16405;53.964;13.448;2023-09-19T02:58:51;100006.31;;;17.29;100.00
29433;BME280;16405;53.964;13.448;2023-09-19T03:01:17;100007.31;;;17.28;100.00
29433;BME280;16405;53.964;13.448;2023-09-19T03:03:44;100012.34;;;17.31;100.00
29433;BME280;16405;53.964;13.448;2023-09-19T03:06:11;100015.72;;;17.33;100.00
29433;BME280;16405;53.964;13.448;2023-09-19T03:08:38;100026.50;;;17.32;99.21
29433;BME280;16405;53.964;13.448;2023-09-19T03:11:06;100016.72;;;17.32;98.55
29433;BME280;16405;53.964;13.448;2023-09-19T03:13:33;100013.34;;;17.30;97.58
29433;BME280;16405;53.964;13.448;2023-09-19T03:15:58;100017.25;;;17.26;97.20
29433;BME280;16405;53.964;13.448;2023-09-19T03:18:24;100017.88;;;17.18;96.71
29433;BME280;16405;53.964;13.448;2023-09-19T03:20:55;100029.03;;;17.12;96.09
29433;BME280;16405;53.964;13.448;2023-09-19T03:23:22;100034.19;;;17.04;95.72
29433;BME280;16405;53.964;13.448;2023-09-19T03:25:47;100042.69;;;16.98;95.62
29433;BME280;16405;53.964;13.448;2023-09-19T03:28:14;100030.50;;;16.95;94.92
29433;BME280;16405;53.964;13.448;2023-09-19T03:30:41;100034.50;;;16.90;94.91
29433;BME280;16405;53.964;13.448;2023-09-19T03:33:07;100039.38;;;16.85;94.73
29433;BME280;16405;53.964;13.448;2023-09-19T03:35:33;100031.53;;;16.83;94.84
29433;BME280;16405;53.964;13.448;2023-09-19T03:38:00;100046.00;;;16.79;94.74
29433;BME280;16405;53.964;13.448;2023-09-19T03:40:26;100041.19;;;16.73;94.60
29433;BME280;16405;53.964;13.448;2023-09-19T03:42:51;100035.44;;;16.68;94.78
29433;BME280;16405;53.964;13.448;2023-09-19T03:45:17;100041.69;;;16.67;94.73
29433;BME280;16405;53.964;13.448;2023-09-19T03:47:44;100041.97;;;16.64;94.63
29433;BME280;16405;53.964;13.448;2023-09-19T03:50:12;100044.16;;;16.58;94.95
29433;BME280;16405;53.964;13.448;2023-09-19T03:52:40;100044.69;;;16.52;95.24
29433;BME280;16405;53.964;13.448;2023-09-19T03:55:06;100051.94;;;16.50;94.96
29433;BME280;16405;53.964;13.448;2023-09-19T03:57:32;100056.63;;;16.47;94.96
29433;BME280;16405;53.964;13.448;2023-09-19T03:59:58;100061.22;;;16.45;95.45
29433;BME280;16405;53.964;13.448;2023-09-19T04:02:24;100058.97;;;16.40;95.44
29433;BME280;16405;53.964;13.448;2023-09-19T04:04:53;100065.22;;;16.39;95.55
29433;BME280;16405;53.964;13.448;2023-09-19T04:07:19;100069.81;;;16.37;95.46
29433;BME280;16405;53.964;13.448;2023-09-19T04:09:48;100073.34;;;16.37;95.90
29433;BME280;16405;53.964;13.448;2023-09-19T04:12:14;100070.81;;;16.36;96.04
29433;BME280;16405;53.964;13.448;2023-09-19T04:14:42;100069.13;;;16.35;95.72
29433;BME280;16405;53.964;13.448;2023-09-19T04:17:08;100073.84;;;16.31;95.94
29433;BME280;16405;53.964;13.448;2023-09-19T04:19:34;100080.34;;;16.27;95.96
29433;BME280;16405;53.964;13.448;2023-09-19T04:22:00;100082.41;;;16.24;95.93
29433;BME280;16405;53.964;13.448;2023-09-19T04:24:26;100077.34;;;16.20;96.38
29433;BME280;16405;53.964;13.448;2023-09-19T04:26:52;100076.63;;;16.18;96.65
29433;BME280;16405;53.964;13.448;2023-09-19T04:29:18;100074.19;;;16.15;96.74
29433;BME280;16405;53.964;13.448;2023-09-19T04:31:44;100077.84;;;16.14;96.84
29433;BME280;16405;53.964;13.448;2023-09-19T04:34:12;100079.53;;;16.15;96.77
29433;BME280;16405;53.964;13.448;2023-09-19T04:36:43;100080.03;;;16.09;96.84
29433;BME280;16405;53.964;13.448;2023-09-19T04:39:09;100081.25;;;16.05;96.44
29433;BME280;16405;53.964;13.448;2023-09-19T04:41:36;100080.63;;;16.02;96.97
29433;BME280;16405;53.964;13.448;2023-09-19T04:44:07;100082.81;;;15.96;97.68
29433;BME280;16405;53.964;13.448;2023-09-19T04:46:34;100094.53;;;15.94;97.36
29433;BME280;16405;53.964;13.448;2023-09-19T04:49:00;100097.41;;;15.91;97.78
29433;BME280;16405;53.964;13.448;2023-09-19T04:51:26;100099.34;;;15.89;97.95
29433;BME280;16405;53.964;13.448;2023-09-19T04:53:55;100101.28;;;15.87;98.16
29433;BME280;16405;53.964;13.448;2023-09-19T04:56:21;100103.19;;;15.85;98.10
29433;BME280;16405;53.964;13.448;2023-09-19T04:58:47;100115.53;;;15.86;98.23
29433;BME280;16405;53.964;13.448;2023-09-19T05:01:13;100112.50;;;15.90;98.41
29433;BME280;16405;53.964;13.448;2023-09-19T05:03:40;100111.41;;;15.93;98.56
29433;BME280;16405;53.964;13.448;2023-09-19T05:06:06;100117.19;;;15.98;98.53
29433;BME280;16405;53.964;13.448;2023-09-19T05:08:32;100126.59;;;16.02;98.15
29433;BME280;16405;53.964;13.448;2023-09-19T05:10:58;100128.31;;;16.03;97.58
29433;BME280;16405;53.964;13.448;2023-09-19T05:13:24;100135.56;;;16.01;97.42
29433;BME280;16405;53.964;13.448;2023-09-19T05:15:50;100130.47;;;15.98;97.20
29433;BME280;16405;53.964;13.448;2023-09-19T05:18:15;100117.34;;;15.96;97.37
29433;BME280;16405;53.964;13.448;2023-09-19T05:20:41;100125.31;;;15.96;97.21
29433;BME280;16405;53.964;13.448;2023-09-19T05:23:07;100124.44;;;15.96;97.14
29433;BME280;16405;53.964;13.448;2023-09-19T05:25:36;100128.53;;;16.00;96.99
29433;BME280;16405;53.964;13.448;2023-09-19T05:28:03;100125.66;;;16.03;96.40
29433;BME280;16405;53.964;13.448;2023-09-19T05:30:29;100127.13;;;16.07;95.98
29433;BME280;16405;53.964;13.448;2023-09-19T05:32:55;100134.81;;;16.10;95.05
29433;BME280;16405;53.964;13.448;2023-09-19T05:35:21;100136.28;;;16.14;94.81
29433;BME280;16405;53.964;13.448;2023-09-19T05:37:51;100142.56;;;16.13;94.74
29433;BME280;16405;53.964;13.448;2023-09-19T05:40:18;100145.91;;;16.15;94.49
29433;BME280;16405;53.964;13.448;2023-09-19T05:42:43;100146.16;;;16.24;94.18
29433;BME280;16405;53.964;13.448;2023-09-19T05:45:10;100153.25;;;16.57;92.59
29433;BME280;16405;53.964;13.448;2023-09-19T05:47:42;100153.19;;;16.91;90.82
29433;BME280;16405;53.964;13.448;2023-09-19T05:50:11;100159.59;;;16.88;90.18
29433;BME280;16405;53.964;13.448;2023-09-19T05:52:38;100167.69;;;16.98;89.25
29433;BME280;16405;53.964;13.448;2023-09-19T05:55:07;100161.84;;;17.04;88.58
29433;BME280;16405;53.964;13.448;2023-09-19T05:57:34;100166.56;;;17.00;88.20
29433;BME280;16405;53.964;13.448;2023-09-19T06:00:00;100162.09;;;17.01;88.28
29433;BME280;16405;53.964;13.448;2023-09-19T06:02:26;100180.69;;;17.87;85.57
29433;BME280;16405;53.964;13.448;2023-09-19T06:04:56;100187.94;;;17.85;83.83
29433;BME280;16405;53.964;13.448;2023-09-19T06:07:22;100191.22;;;18.29;82.60
29433;BME280;16405;53.964;13.448;2023-09-19T06:09:52;100194.13;;;18.16;81.36
29433;BME280;16405;53.964;13.448;2023-09-19T06:12:19;100192.66;;;17.81;82.66
29433;BME280;16405;53.964;13.448;2023-09-19T06:14:45;100203.97;;;18.65;80.84
29433;BME280;16405;53.964;13.448;2023-09-19T06:17:11;100231.28;;;20.15;75.85
29433;BME280;16405;53.964;13.448;2023-09-19T06:19:36;100254.66;;;23.33;65.66
29433;BME280;16405;53.964;13.448;2023-09-19T06:22:02;100253.97;;;22.20;65.68
29433;BME280;16405;53.964;13.448;2023-09-19T06:24:29;100255.22;;;22.25;66.04
29433;BME280;16405;53.964;13.448;2023-09-19T06:26:55;100246.16;;;21.38;67.84
29433;BME280;16405;53.964;13.448;2023-09-19T06:29:20;100255.06;;;21.83;66.99
29433;BME280;16405;53.964;13.448;2023-09-19T06:31:48;100262.31;;;21.64;66.65
29433;BME280;16405;53.964;13.448;2023-09-19T06:34:14;100251.78;;;21.35;67.56
29433;BME280;16405;53.964;13.448;2023-09-19T06:36:41;100255.22;;;21.09;67.22
29433;BME280;16405;53.964;13.448;2023-09-19T06:39:07;100248.75;;;20.10;70.11
29433;BME280;16405;53.964;13.448;2023-09-19T06:41:39;100245.56;;;19.38;72.48
29433;BME280;16405;53.964;13.448;2023-09-19T06:44:05;100248.69;;;18.83;74.41
29433;BME280;16405;53.964;13.448;2023-09-19T06:46:31;100253.63;;;18.47;75.74
29433;BME280;16405;53.964;13.448;2023-09-19T06:49:01;100252.91;;;18.14;77.11
29433;BME280;16405;53.964;13.448;2023-09-19T06:51:28;100252.34;;;18.20;77.58
29433;BME280;16405;53.964;13.448;2023-09-19T06:53:55;100254.38;;;18.38;77.15
29433;BME280;16405;53.964;13.448;2023-09-19T06:56:21;100270.38;;;18.99;75.04
29433;BME280;16405;53.964;13.448;2023-09-19T06:58:50;100277.53;;;19.09;74.69
29433;BME280;16405;53.964;13.448;2023-09-19T07:01:15;100271.53;;;19.16;73.69
29433;BME280;16405;53.964;13.448;2023-09-19T07:03:41;100280.09;;;19.20;74.03
29433;BME280;16405;53.964;13.448;2023-09-19T07:06:07;100287.38;;;20.25;71.47
29433;BME280;16405;53.964;13.448;2023-09-19T07:08:34;100286.16;;;20.66;69.88
29433;BME280;16405;53.964;13.448;2023-09-19T07:11:00;100314.53;;;22.22;66.13
29433;BME280;16405;53.964;13.448;2023-09-19T07:13:26;100329.03;;;23.49;61.48
29433;BME280;16405;53.964;13.448;2023-09-19T07:15:52;100328.53;;;23.45;60.66
29433;BME280;16405;53.964;13.448;2023-09-19T07:18:18;100334.31;;;24.41;57.94
29433;BME280;16405;53.964;13.448;2023-09-19T07:20:46;100322.03;;;23.72;58.10
29433;BME280;16405;53.964;13.448;2023-09-19T07:23:21;100351.78;;;24.53;56.46
29433;BME280;16405;53.964;13.448;2023-09-19T07:25:49;100343.56;;;23.97;56.42
29433;BME280;16405;53.964;13.448;2023-09-19T07:28:15;100355.50;;;23.94;56.73
29433;BME280;16405;53.964;13.448;2023-09-19T07:30:41;100360.81;;;24.68;55.19
29433;BME280;16405;53.964;13.448;2023-09-19T07:33:07;100377.16;;;24.34;55.24
29433;BME280;16405;53.964;13.448;2023-09-19T07:35:37;100395.25;;;24.97;53.53
29433;BME280;16405;53.964;13.448;2023-09-19T07:38:05;100400.66;;;24.89;53.24
29433;BME280;16405;53.964;13.448;2023-09-19T07:40:31;100394.19;;;24.34;53.12
29433;BME280;16405;53.964;13.448;2023-09-19T07:42:57;100386.97;;;23.51;53.42
29433;BME280;16405;53.964;13.448;2023-09-19T07:45:31;100392.81;;;23.39;54.07
29433;BME280;16405;53.964;13.448;2023-09-19T07:47:57;100397.16;;;22.97;53.58
29433;BME280;16405;53.964;13.448;2023-09-19T07:50:23;100400.19;;;22.68;54.06
29433;BME280;16405;53.964;13.448;2023-09-19T07:52:50;100425.31;;;23.19;51.61
29433;BME280;16405;53.964;13.448;2023-09-19T07:55:20;100436.78;;;23.72;50.64
29433;BME280;16405;53.964;13.448;2023-09-19T07:57:49;100458.09;;;23.65;49.65
29433;BME280;16405;53.964;13.448;2023-09-19T08:00:15;100465.47;;;23.63;49.42
29433;BME280;16405;53.964;13.448;2023-09-19T08:02:42;100473.78;;;23.78;48.63
29433;BME280;16405;53.964;13.448;2023-09-19T08:05:11;100480.72;;;23.63;48.47
29433;BME280;16405;53.964;13.448;2023-09-19T08:07:41;100494.66;;;24.01;47.84
29433;BME280;16405;53.964;13.448;2023-09-19T08:10:08;100510.53;;;24.36;47.45
29433;BME280;16405;53.964;13.448;2023-09-19T08:12:39;100512.59;;;24.75;46.82
29433;BME280;16405;53.964;13.448;2023-09-19T08:15:18;100521.28;;;25.27;45.33
29433;BME280;16405;53.964;13.448;2023-09-19T08:17:48;100552.50;;;25.69;43.89
29433;BME280;16405;53.964;13.448;2023-09-19T08:20:14;100553.31;;;26.17;42.77
29433;BME280;16405;53.964;13.448;2023-09-19T08:22:54;100565.91;;;26.79;41.32
29433;BME280;16405;53.964;13.448;2023-09-19T08:25:22;100589.84;;;26.82;41.16
29433;BME280;16405;53.964;13.448;2023-09-19T08:27:51;100606.03;;;27.05;40.98
29433;BME280;16405;53.964;13.448;2023-09-19T08:30:19;100611.56;;;26.89;40.64
29433;BME280;16405;53.964;13.448;2023-09-19T08:32:59;100611.94;;;27.09;40.66
29433;BME280;16405;53.964;13.448;2023-09-19T08:35:28;100629.94;;;27.16;39.80
29433;BME280;16405;53.964;13.448;2023-09-19T08:37:54;100620.34;;;26.91;39.59
29433;BME280;16405;53.964;13.448;2023-09-19T08:40:26;100634.16;;;26.96;39.51
29433;BME280;16405;53.964;13.448;2023-09-19T08:42:57;100638.25;;;27.15;40.28
29433;BME280;16405;53.964;13.448;2023-09-19T08:45:24;100639.41;;;27.12;39.00
29433;BME280;16405;53.964;13.448;2023-09-19T08:51:06;100658.72;;;27.09;39.24
29433;BME280;16405;53.964;13.448;2023-09-19T08:53:54;100644.00;;;26.66;39.38
29433;BME280;16405;53.964;13.448;2023-09-19T08:56:29;100638.25;;;26.29;40.28
29433;BME280;16405;53.964;13.448;2023-09-19T08:59:04;100647.34;;;25.89;40.71
29433;BME280;16405;53.964;13.448;2023-09-19T09:01:33;100626.69;;;25.48;41.60
29433;BME280;16405;53.964;13.448;2023-09-19T09:04:02;100628.72;;;25.05;42.02
29433;BME280;16405;53.964;13.448;2023-09-19T09:06:30;100619.75;;;24.64;42.43
29433;BME280;16405;53.964;13.448;2023-09-19T09:08:58;100606.38;;;24.38;43.49
29433;BME280;16405;53.964;13.448;2023-09-19T09:11:30;100604.88;;;24.35;44.29
29433;BME280;16405;53.964;13.448;2023-09-19T09:14:01;100599.22;;;24.04;44.45
29433;BME280;16405;53.964;13.448;2023-09-19T09:16:27;100595.16;;;23.65;45.06
29433;BME280;16405;53.964;13.448;2023-09-19T09:18:58;100581.91;;;23.38;45.77
29433;BME280;16405;53.964;13.448;2023-09-19T09:21:27;100572.59;;;22.88;45.96
29433;BME280;16405;53.964;13.448;2023-09-19T09:23:56;100559.41;;;22.59;46.08
29433;BME280;16405;53.964;13.448;2023-09-19T09:26:41;100557.75;;;22.40;46.71
29433;BME280;16405;53.964;13.448;2023-09-19T09:29:15;100547.41;;;22.27;47.26
29433;BME280;16405;53.964;13.448;2023-09-19T09:31:41;100548.22;;;22.27;47.61
29433;BME280;16405;53.964;13.448;2023-09-19T09:34:08;100540.03;;;22.47;48.46
29433;BME280;16405;53.964;13.448;2023-09-19T09:36:39;100538.94;;;22.76;48.15
29433;BME280;16405;53.964;13.448;2023-09-19T09:39:07;100546.31;;;22.73;46.92
29433;BME280;16405;53.964;13.448;2023-09-19T09:41:53;100558.25;;;22.61;46.62
29433;BME280;16405;53.964;13.448;2023-09-19T09:44:22;100559.75;;;22.38;46.78
29433;BME280;16405;53.964;13.448;2023-09-19T09:46:48;100560.44;;;22.12;47.16
29433;BME280;16405;53.964;13.448;2023-09-19T09:49:50;100556.75;;;22.13;47.70
29433;BME280;16405;53.964;13.448;2023-09-19T09:52:26;100554.28;;;22.02;47.31
29433;BME280;16405;53.964;13.448;2023-09-19T09:55:08;100550.69;;;21.83;47.44
29433;BME280;16405;53.964;13.448;2023-09-19T09:57:34;100552.88;;;21.70;47.80
29433;BME280;16405;53.964;13.448;2023-09-19T10:00:05;100540.13;;;21.54;48.23
29433;BME280;16405;53.964;13.448;2023-09-19T10:02:43;100534.69;;;21.74;48.43
29433;BME280;16405;53.964;13.448;2023-09-19T10:05:23;100537.19;;;22.03;48.21
29433;BME280;16405;53.964;13.448;2023-09-19T10:07:52;100539.13;;;22.10;47.76
29433;BME280;16405;53.964;13.448;2023-09-19T10:10:38;100542.72;;;22.01;47.67
29433;BME280;16405;53.964;13.448;2023-09-19T10:13:11;100534.22;;;22.06;47.71
29433;BME280;16405;53.964;13.448;2023-09-19T10:15:54;100542.66;;;22.11;47.51
29433;BME280;16405;53.964;13.448;2023-09-19T10:18:27;100529.66;;;22.16;47.48
29433;BME280;16405;53.964;13.448;2023-09-19T10:21:08;100537.28;;;22.39;47.89
29433;BME280;16405;53.964;13.448;2023-09-19T10:23:38;100537.66;;;22.44;47.52
29433;BME280;16405;53.964;13.448;2023-09-19T10:26:18;100545.16;;;22.22;47.09
29433;BME280;16405;53.964;13.448;2023-09-19T10:28:48;100540.78;;;21.94;47.38
29433;BME280;16405;53.964;13.448;2023-09-19T10:31:24;100531.34;;;21.89;48.20
29433;BME280;16405;53.964;13.448;2023-09-19T10:33:55;100535.50;;;21.84;48.22
29433;BME280;16405;53.964;13.448;2023-09-19T10:36:33;100530.16;;;21.74;48.49
29433;BME280;16405;53.964;13.448;2023-09-19T10:39:05;100535.41;;;21.66;48.79
29433;BME280;16405;53.964;13.448;2023-09-19T10:41:35;100529.03;;;21.49;49.04
29433;BME280;16405;53.964;13.448;2023-09-19T10:44:04;100527.47;;;21.46;49.26
29433;BME280;16405;53.964;13.448;2023-09-19T10:46:41;100522.81;;;21.48;49.28
29433;BME280;16405;53.964;13.448;2023-09-19T10:49:11;100516.22;;;21.43;49.17
29433;BME280;16405;53.964;13.448;2023-09-19T10:51:41;100529.03;;;21.49;49.35
29433;BME280;16405;53.964;13.448;2023-09-19T10:54:22;100535.34;;;21.58;49.63
29433;BME280;16405;53.964;13.448;2023-09-19T10:56:58;100534.81;;;21.72;49.32
29433;BME280;16405;53.964;13.448;2023-09-19T10:59:30;100538.19;;;21.74;49.04
29433;BME280;16405;53.964;13.448;2023-09-19T11:02:19;100537.13;;;21.95;49.16
29433;BME280;16405;53.964;13.448;2023-09-19T11:04:52;100539.19;;;22.01;49.23
29433;BME280;16405;53.964;13.448;2023-09-19T11:07:19;100528.38;;;21.92;49.25
29433;BME280;16405;53.964;13.448;2023-09-19T11:09:57;100538.69;;;21.87;48.70
29433;BME280;16405;53.964;13.448;2023-09-19T11:14:59;100532.00;;;21.74;48.65
29433;BME280;16405;53.964;13.448;2023-09-19T11:17:32;100535.50;;;21.84;49.24
29433;BME280;16405;53.964;13.448;2023-09-19T11:30:39;100521.03;;;21.29;50.12
29433;BME280;16405;53.964;13.448;2023-09-19T11:33:28;100512.53;;;21.44;50.16
29433;BME280;16405;53.964;13.448;2023-09-19T11:36:14;100531.69;;;21.39;50.23
29433;BME280;16405;53.964;13.448;2023-09-19T11:46:33;100520.78;;;21.03;50.96
29433;BME280;16405;53.964;13.448;2023-09-19T11:49:07;100524.59;;;21.10;51.22
29433;BME280;16405;53.964;13.448;2023-09-19T11:51:51;100526.97;;;21.23;50.38
29433;BME280;16405;53.964;13.448;2023-09-19T11:54:23;100519.03;;;21.41;50.64
29433;BME280;16405;53.964;13.448;2023-09-19T11:57:00;100530.38;;;21.63;49.86
29433;BME280;16405;53.964;13.448;2023-09-19T11:59:33;100539.25;;;21.63;48.86
29433;BME280;16405;53.964;13.448;2023-09-19T12:02:06;100543.38;;;21.58;49.13
29433;BME280;16405;53.964;13.448;2023-09-19T12:04:53;100533.38;;;21.40;48.11
29433;BME280;16405;53.964;13.448;2023-09-19T12:07:19;100542.84;;;21.35;48.68
29433;BME280;16405;53.964;13.448;2023-09-19T12:10:05;100541.06;;;21.25;48.25
29433;BME280;16405;53.964;13.448;2023-09-19T12:12:34;100543.16;;;21.12;48.55
29433;BME280;16405;53.964;13.448;2023-09-19T12:15:11;100545.44;;;21.07;48.03
29433;BME280;16405;53.964;13.448;2023-09-19T12:17:41;100542.59;;;21.18;47.98
29433;BME280;16405;53.964;13.448;2023-09-19T12:20:13;100544.69;;;21.24;48.07
29433;BME280;16405;53.964;13.448;2023-09-19T12:22:46;100543.13;;;21.31;48.27
29433;BME280;16405;53.964;13.448;2023-09-19T12:25:13;100549.47;;;21.30;47.70
29433;BME280;16405;53.964;13.448;2023-09-19T12:27:49;100550.88;;;21.35;47.78
29433;BME280;16405;53.964;13.448;2023-09-19T12:30:18;100544.81;;;21.33;48.03
29433;BME280;16405;53.964;13.448;2023-09-19T12:32:46;100547.63;;;21.31;48.46
29433;BME280;16405;53.964;13.448;2023-09-19T12:35:28;100544.13;;;21.21;48.51
29433;BME280;16405;53.964;13.448;2023-09-19T12:37:55;100548.53;;;21.22;48.77
29433;BME280;16405;53.964;13.448;2023-09-19T12:40:22;100539.06;;;21.27;48.79
29433;BME280;16405;53.964;13.448;2023-09-19T12:42:54;100555.44;;;21.15;47.07
29433;BME280;16405;53.964;13.448;2023-09-19T12:45:33;100567.13;;;21.14;46.91
29433;BME280;16405;53.964;13.448;2023-09-19T12:48:26;100575.16;;;21.14;46.73
29433;BME280;16405;53.964;13.448;2023-09-19T12:51:25;100573.19;;;21.16;46.26
29433;BME280;16405;53.964;13.448;2023-09-19T12:54:00;100566.25;;;21.23;47.20
29433;BME280;16405;53.964;13.448;2023-09-19T12:56:25;100564.41;;;21.33;47.24
29433;BME280;16405;53.964;13.448;2023-09-19T12:58:58;100563.00;;;21.39;47.17
29433;BME280;16405;53.964;13.448;2023-09-19T13:01:29;100560.75;;;21.34;46.78
29433;BME280;16405;53.964;13.448;2023-09-19T13:06:44;100575.28;;;21.22;46.42
29433;BME280;16405;53.964;13.448;2023-09-19T13:09:11;100568.66;;;21.26;46.80
29433;BME280;16405;53.964;13.448;2023-09-19T13:11:38;100573.19;;;21.25;46.77
29433;BME280;16405;53.964;13.448;2023-09-19T13:14:21;100579.94;;;21.29;46.92
29433;BME280;16405;53.964;13.448;2023-09-19T13:17:07;100572.56;;;21.31;47.12
29433;BME280;16405;53.964;13.448;2023-09-19T13:19:51;100573.72;;;21.29;47.46
29433;BME280;16405;53.964;13.448;2023-09-19T13:22:43;100579.38;;;21.16;46.98
29433;BME280;16405;53.964;13.448;2023-09-19T13:25:20;100576.59;;;20.98;47.42
29433;BME280;16405;53.964;13.448;2023-09-19T13:27:57;100565.06;;;20.98;47.59